createdAt,value
2022-12-08T00:01:13.606Z,2.30
2022-12-08T00:03:41.854Z,2.40
2022-12-08T00:06:25.514Z,1.90
2022-12-08T00:08:52.588Z,1.98
2022-12-08T00:11:19.926Z,1.90
2022-12-08T00:13:46.779Z,1.95
2022-12-08T00:16:13.619Z,1.90
2022-12-08T00:18:40.521Z,2.00
2022-12-08T00:21:07.410Z,1.85
2022-12-08T00:23:34.386Z,2.00
2022-12-08T00:26:06.028Z,1.83
2022-12-08T00:28:34.721Z,2.60
2022-12-08T00:31:08.717Z,2.10
2022-12-08T00:33:36.561Z,2.17
2022-12-08T00:36:10.830Z,1.47
2022-12-08T00:38:39.039Z,1.65
2022-12-08T00:41:21.233Z,2.00
2022-12-08T00:43:48.105Z,1.70
2022-12-08T00:46:14.921Z,1.80
2022-12-08T00:48:41.730Z,1.43
2022-12-08T00:51:08.508Z,1.50
2022-12-08T00:53:35.446Z,1.80
2022-12-08T00:56:02.150Z,1.60
2022-12-08T00:58:29.023Z,1.20
2022-12-08T01:00:55.890Z,1.40
2022-12-08T01:03:22.907Z,1.38
2022-12-08T01:05:49.662Z,1.02
2022-12-08T01:08:16.552Z,1.10
2022-12-08T01:10:43.401Z,1.60
2022-12-08T01:13:10.293Z,1.00
2022-12-08T01:15:37.223Z,1.40
2022-12-08T01:18:04.304Z,1.30
2022-12-08T01:20:31.052Z,1.23
2022-12-08T01:22:57.882Z,1.42
2022-12-08T01:25:24.661Z,1.60
2022-12-08T01:27:52.973Z,1.50
2022-12-08T01:30:21.221Z,1.70
2022-12-08T01:32:48.236Z,1.58
2022-12-08T01:35:15.535Z,1.50
2022-12-08T01:37:42.292Z,1.40
2022-12-08T01:40:09.544Z,1.33
2022-12-08T01:42:36.408Z,1.45
2022-12-08T01:45:07.871Z,1.45
2022-12-08T01:47:41.502Z,1.55
2022-12-08T01:50:12.120Z,1.40
2022-12-08T01:52:51.793Z,1.48
2022-12-08T01:55:32.087Z,1.60
2022-12-08T01:58:39.665Z,1.52
2022-12-08T02:01:07.214Z,1.40
2022-12-08T02:03:42.094Z,1.30
2022-12-08T02:06:10.836Z,1.42
2022-12-08T02:08:41.127Z,1.55
2022-12-08T02:11:12.343Z,1.60
2022-12-08T02:13:41.674Z,1.77
2022-12-08T02:16:30.288Z,1.53
2022-12-08T02:19:30.808Z,1.60
2022-12-08T02:22:03.854Z,1.73
2022-12-08T02:24:49.419Z,1.67
2022-12-08T02:27:40.836Z,1.33
2022-12-08T02:30:11.814Z,1.50
2022-12-08T02:33:06.206Z,1.20
2022-12-08T02:35:53.667Z,1.25
2022-12-08T02:38:27.225Z,1.33
2022-12-08T02:41:30.597Z,1.65
2022-12-08T02:44:17.344Z,1.43
2022-12-08T02:46:55.900Z,1.40
2022-12-08T02:49:29.716Z,1.30
2022-12-08T02:52:25.297Z,1.48
2022-12-08T02:54:55.429Z,1.58
2022-12-08T02:57:46.135Z,1.20
2022-12-08T03:00:18.810Z,1.35
2022-12-08T03:03:00.144Z,1.63
2022-12-08T03:05:41.405Z,1.35
2022-12-08T03:08:25.280Z,1.25
2022-12-08T03:11:11.641Z,1.30
2022-12-08T03:13:46.498Z,1.60
2022-12-08T03:16:18.535Z,1.65
2022-12-08T03:18:50.811Z,1.90
2022-12-08T03:21:21.238Z,1.95
2022-12-08T03:23:52.273Z,1.90
2022-12-08T03:26:27.334Z,2.13
2022-12-08T03:28:54.587Z,1.80
2022-12-08T03:31:25.479Z,2.00
2022-12-08T03:33:56.862Z,2.22
2022-12-08T03:36:24.251Z,1.90
2022-12-08T03:38:53.676Z,2.10
2022-12-08T03:41:22.413Z,2.20
2022-12-08T03:43:53.645Z,2.00
2022-12-08T03:48:49.069Z,2.20
2022-12-08T03:51:16.723Z,1.90
2022-12-08T03:53:44.891Z,2.33
2022-12-08T03:56:28.129Z,1.98
2022-12-08T03:58:55.516Z,2.45
2022-12-08T04:01:23.205Z,1.90
2022-12-08T04:03:50.274Z,2.20
2022-12-08T04:06:17.785Z,1.90
2022-12-08T04:08:44.633Z,2.00
2022-12-08T04:11:11.814Z,2.30
2022-12-08T04:13:40.163Z,2.30
2022-12-08T04:16:08.597Z,2.00
2022-12-08T04:18:36.050Z,2.22
2022-12-08T04:21:02.891Z,2.20
2022-12-08T04:23:29.719Z,2.20
2022-12-08T04:25:56.490Z,2.20
2022-12-08T04:28:23.358Z,2.20
2022-12-08T04:30:50.256Z,2.10
2022-12-08T04:33:17.900Z,2.50
2022-12-08T04:35:44.787Z,2.47
2022-12-08T04:38:11.879Z,2.00
2022-12-08T04:40:39.063Z,2.33
2022-12-08T04:43:05.940Z,2.05
2022-12-08T04:45:33.457Z,1.98
2022-12-08T04:48:01.560Z,2.33
2022-12-08T04:50:28.811Z,2.50
2022-12-08T04:52:55.557Z,2.35
2022-12-08T04:55:22.405Z,2.17
2022-12-08T04:57:50.009Z,2.40
2022-12-08T05:00:17.889Z,1.92
2022-12-08T05:02:44.748Z,2.00
2022-12-08T05:05:11.688Z,2.17
2022-12-08T05:07:38.467Z,2.47
2022-12-08T05:10:06.216Z,2.70
2022-12-08T05:12:33.575Z,2.40
2022-12-08T05:15:00.353Z,2.47
2022-12-08T05:17:27.384Z,2.65
2022-12-08T05:19:54.621Z,2.42
2022-12-08T05:22:21.897Z,3.15
2022-12-08T05:24:48.984Z,2.63
2022-12-08T05:27:16.625Z,2.40
2022-12-08T05:29:43.402Z,2.70
2022-12-08T05:32:10.212Z,2.75
2022-12-08T05:34:37.003Z,2.85
2022-12-08T05:37:04.262Z,2.58
2022-12-08T05:39:31.152Z,2.47
2022-12-08T05:41:57.881Z,2.65
2022-12-08T05:44:24.685Z,2.45
2022-12-08T05:46:51.988Z,2.40
2022-12-08T05:49:18.806Z,2.80
2022-12-08T05:51:45.565Z,2.53
2022-12-08T05:54:12.349Z,3.10
2022-12-08T05:56:39.120Z,2.78
2022-12-08T05:59:07.149Z,2.70
2022-12-08T06:01:34.682Z,3.05
2022-12-08T06:04:03.556Z,2.93
2022-12-08T06:06:31.626Z,3.00
2022-12-08T06:08:58.530Z,2.58
2022-12-08T06:11:30.461Z,2.78
2022-12-08T06:13:58.631Z,2.50
2022-12-08T06:16:26.967Z,2.40
2022-12-08T06:18:55.322Z,2.72
2022-12-08T06:21:22.128Z,2.67
2022-12-08T06:23:50.629Z,2.50
2022-12-08T06:26:18.125Z,2.33
2022-12-08T06:28:45.131Z,2.10
2022-12-08T06:31:21.127Z,2.13
2022-12-08T06:33:48.991Z,2.50
2022-12-08T06:36:18.298Z,2.20
2022-12-08T06:38:45.112Z,2.30
2022-12-08T06:41:12.754Z,2.70
2022-12-08T06:43:40.004Z,2.28
2022-12-08T06:46:10.345Z,2.38
2022-12-08T06:48:37.194Z,2.28
2022-12-08T06:51:12.694Z,2.20
2022-12-08T06:53:40.026Z,2.60
2022-12-08T06:56:07.423Z,2.50
2022-12-08T06:58:35.357Z,2.78
2022-12-08T07:01:07.422Z,2.38
2022-12-08T07:03:34.515Z,2.50
2022-12-08T07:06:04.131Z,2.60
2022-12-08T07:08:32.344Z,2.50
2022-12-08T07:10:59.166Z,2.38
2022-12-08T07:13:25.943Z,2.38
2022-12-08T07:15:52.733Z,2.97
2022-12-08T07:18:19.489Z,2.47
2022-12-08T07:20:46.220Z,2.58
2022-12-08T07:23:12.977Z,2.35
2022-12-08T07:25:39.774Z,3.22
2022-12-08T07:28:11.087Z,2.90
2022-12-08T07:30:39.315Z,2.80
2022-12-08T07:33:06.273Z,2.45
2022-12-08T07:35:35.005Z,2.78
2022-12-08T07:38:02.586Z,2.65
2022-12-08T07:40:29.437Z,2.80
2022-12-08T07:42:56.176Z,2.90
2022-12-08T07:45:26.910Z,3.15
2022-12-08T07:47:57.989Z,3.20
2022-12-08T07:50:24.713Z,3.15
2022-12-08T07:52:51.506Z,2.95
2022-12-08T07:55:18.226Z,2.83
2022-12-08T07:57:44.966Z,3.15
2022-12-08T08:00:12.338Z,2.95
2022-12-08T08:02:39.278Z,3.30
2022-12-08T08:05:06.648Z,3.63
2022-12-08T08:07:33.526Z,3.67
2022-12-08T08:10:00.405Z,3.40
2022-12-08T08:12:31.713Z,3.15
2022-12-08T08:15:01.335Z,3.45
2022-12-08T08:17:29.482Z,3.72
2022-12-08T08:19:57.058Z,3.10
2022-12-08T08:22:25.252Z,3.30
2022-12-08T08:24:52.600Z,3.58
2022-12-08T08:27:19.910Z,3.28
2022-12-08T08:29:46.771Z,3.17
2022-12-08T08:32:13.531Z,3.40
2022-12-08T08:34:40.305Z,3.25
2022-12-08T08:37:07.071Z,3.20
2022-12-08T08:39:33.996Z,3.05
2022-12-08T08:42:00.893Z,3.30
2022-12-08T08:44:27.728Z,3.17
2022-12-08T08:46:54.509Z,3.22
2022-12-08T08:49:21.492Z,3.13
2022-12-08T08:51:48.271Z,3.40
2022-12-08T08:54:16.010Z,3.42
2022-12-08T08:56:42.802Z,3.77
2022-12-08T08:59:10.583Z,3.53
2022-12-08T09:01:37.391Z,3.42
2022-12-08T09:04:04.311Z,3.80
2022-12-08T09:06:31.416Z,4.00
2022-12-08T09:08:58.223Z,3.93
2022-12-08T09:11:24.969Z,4.30
2022-12-08T09:13:53.373Z,4.30
2022-12-08T09:16:21.256Z,4.60
2022-12-08T09:18:48.640Z,5.00
2022-12-08T09:21:17.699Z,5.13
2022-12-08T09:23:44.409Z,4.50
2022-12-08T09:26:11.232Z,4.70
2022-12-08T09:28:38.278Z,4.60
2022-12-08T09:31:05.258Z,4.28
2022-12-08T09:33:33.440Z,4.70
2022-12-08T09:36:04.162Z,4.93
2022-12-08T09:38:31.830Z,4.93
2022-12-08T09:40:59.915Z,4.75
2022-12-08T09:43:50.785Z,4.32
2022-12-08T09:46:19.011Z,4.30
2022-12-08T09:48:53.906Z,4.45
2022-12-08T09:51:21.933Z,4.18
2022-12-08T09:53:54.763Z,4.15
2022-12-08T09:56:33.239Z,3.65
2022-12-08T09:59:05.573Z,3.33
2022-12-08T10:01:35.923Z,2.78
2022-12-08T10:04:02.799Z,3.20
2022-12-08T10:06:54.710Z,2.95
2022-12-08T10:09:39.867Z,2.72
2022-12-08T10:12:28.183Z,2.90
2022-12-08T10:14:57.546Z,2.75
2022-12-08T10:17:26.348Z,3.50
2022-12-08T10:20:20.348Z,2.92
2022-12-08T10:22:52.401Z,2.65
2022-12-08T10:25:30.410Z,2.87
2022-12-08T10:27:58.880Z,3.10
2022-12-08T10:30:25.655Z,3.17
2022-12-08T10:32:54.056Z,3.05
2022-12-08T10:35:22.742Z,3.10
2022-12-08T10:38:01.671Z,2.80
2022-12-08T10:40:39.084Z,2.90
2022-12-08T10:43:16.089Z,2.90
2022-12-08T10:45:42.839Z,2.63
2022-12-08T10:48:24.171Z,3.00
2022-12-08T10:50:58.840Z,2.83
2022-12-08T10:53:33.564Z,2.63
2022-12-08T10:56:03.046Z,3.03
2022-12-08T10:58:41.888Z,3.63
2022-12-08T11:01:21.549Z,3.65
2022-12-08T11:03:55.441Z,3.10
2022-12-08T11:06:30.654Z,3.78
2022-12-08T11:09:03.200Z,3.08
2022-12-08T11:11:51.676Z,3.53
2022-12-08T11:14:42.427Z,3.97
2022-12-08T11:17:11.837Z,3.80
2022-12-08T11:19:40.159Z,3.60
2022-12-08T11:22:31.305Z,4.18
2022-12-08T11:25:02.200Z,4.38
2022-12-08T11:27:29.262Z,4.03
2022-12-08T11:29:56.452Z,4.03
2022-12-08T11:32:23.199Z,3.83
2022-12-08T11:34:58.402Z,4.13
2022-12-08T11:37:35.181Z,3.70
2022-12-08T11:40:14.106Z,3.88
2022-12-08T11:43:11.934Z,4.07
2022-12-08T11:45:41.582Z,4.18
2022-12-08T11:48:16.222Z,3.58
2022-12-08T11:50:51.906Z,3.75
2022-12-08T11:53:30.531Z,3.40
2022-12-08T11:56:03.833Z,3.63
2022-12-08T11:58:42.247Z,3.72
2022-12-08T12:01:20.907Z,4.07
2022-12-08T12:03:54.706Z,3.65
2022-12-08T12:06:55.720Z,4.10
2022-12-08T12:09:32.176Z,3.70
2022-12-08T12:12:13.583Z,4.30
2022-12-08T12:15:10.597Z,4.43
2022-12-08T12:17:59.729Z,4.80
2022-12-08T12:20:32.046Z,5.22
2022-12-08T12:23:07.319Z,5.33
2022-12-08T12:25:37.022Z,5.57
2022-12-08T12:28:07.770Z,5.43
2022-12-08T12:31:06.896Z,5.32
2022-12-08T12:33:35.391Z,5.40
2022-12-08T12:36:05.852Z,5.70
2022-12-08T12:38:36.875Z,5.28
2022-12-08T12:41:05.871Z,5.00
2022-12-08T12:43:35.639Z,5.30
2022-12-08T12:46:24.495Z,5.50
2022-12-08T12:48:52.270Z,5.30
2022-12-08T12:51:48.021Z,6.00
2022-12-08T12:54:27.182Z,5.43
2022-12-08T12:56:56.193Z,5.40
2022-12-08T13:00:06.024Z,5.93
2022-12-08T13:02:35.954Z,5.87
2022-12-08T13:05:08.254Z,5.22
2022-12-08T13:07:45.833Z,5.78
2022-12-08T13:10:16.339Z,6.05
2022-12-08T13:12:45.020Z,5.70
2022-12-08T13:15:20.041Z,6.13
2022-12-08T13:17:49.046Z,5.80
2022-12-08T13:20:22.462Z,5.20
2022-12-08T13:23:02.317Z,6.30
2022-12-08T13:25:44.318Z,5.40
2022-12-08T13:28:26.984Z,5.40
2022-12-08T13:31:01.358Z,5.60
2022-12-08T13:33:39.091Z,6.15
2022-12-08T13:36:05.931Z,5.70
2022-12-08T13:38:36.967Z,6.18
2022-12-08T13:41:09.379Z,5.87
2022-12-08T13:43:55.574Z,6.65
2022-12-08T13:47:24.741Z,6.18
2022-12-08T13:54:10.091Z,6.20
2022-12-08T13:58:26.202Z,6.13
2022-12-08T14:00:57.875Z,5.85
2022-12-08T14:03:24.839Z,6.90
2022-12-08T14:11:54.618Z,7.38
2022-12-08T14:15:01.122Z,7.38
2022-12-08T14:17:22.935Z,6.22
2022-12-08T14:20:05.778Z,6.82
2022-12-08T14:22:37.949Z,6.47
2022-12-08T14:25:07.612Z,7.55
2022-12-08T14:27:38.080Z,7.68
2022-12-08T14:30:29.311Z,7.30
2022-12-08T14:33:01.110Z,6.85
2022-12-08T14:35:27.813Z,6.17
2022-12-08T14:38:00.822Z,7.45
2022-12-08T14:40:41.988Z,6.90
2022-12-08T14:43:08.766Z,6.95
2022-12-08T14:45:48.153Z,7.18
2022-12-08T14:48:25.123Z,6.50
2022-12-08T14:51:04.133Z,6.63
2022-12-08T14:53:39.135Z,6.70
2022-12-08T14:56:25.955Z,6.70
2022-12-08T14:59:26.874Z,7.00
2022-12-08T15:02:09.264Z,7.30
2022-12-08T15:04:39.386Z,7.32
2022-12-08T15:07:16.117Z,7.78
2022-12-08T15:09:49.156Z,7.10
2022-12-08T15:12:26.142Z,7.80
2022-12-08T15:14:59.599Z,7.17
2022-12-08T15:17:40.930Z,7.63
2022-12-08T15:20:34.803Z,7.72
2022-12-08T15:23:03.397Z,7.03
2022-12-08T15:25:30.526Z,7.25
2022-12-08T15:27:57.807Z,7.20
2022-12-08T15:30:25.522Z,6.90
2022-12-08T15:32:53.291Z,7.07
2022-12-08T15:35:20.313Z,7.30
2022-12-08T15:37:47.077Z,7.22
2022-12-08T15:40:21.891Z,7.63
2022-12-08T15:42:49.492Z,7.15
2022-12-08T15:45:17.304Z,8.07
2022-12-08T15:47:45.136Z,7.75
2022-12-08T15:50:17.392Z,8.00
2022-12-08T15:52:44.283Z,7.77
2022-12-08T15:55:15.716Z,8.35
2022-12-08T15:58:44.706Z,8.15
2022-12-08T16:00:52.361Z,7.95
2022-12-08T16:05:17.824Z,9.00
2022-12-08T16:09:18.773Z,8.68
2022-12-08T16:12:05.856Z,8.23
2022-12-08T16:15:39.696Z,8.00
2022-12-08T16:17:21.267Z,8.43
2022-12-08T16:19:49.171Z,9.07
2022-12-08T16:25:23.356Z,9.00
2022-12-08T16:28:17.265Z,8.77
2022-12-08T16:30:42.140Z,8.38
2022-12-08T16:33:10.103Z,8.40
2022-12-08T16:35:36.948Z,8.80
2022-12-08T16:38:04.185Z,8.95
2022-12-08T16:40:31.434Z,8.95
2022-12-08T16:42:58.432Z,9.55
2022-12-08T16:45:30.233Z,8.90
2022-12-08T16:48:01.322Z,8.45
2022-12-08T16:50:31.319Z,8.88
2022-12-08T16:53:04.378Z,8.40
2022-12-08T16:55:33.332Z,8.85
2022-12-08T16:58:00.809Z,8.63
2022-12-08T17:00:29.654Z,8.88
2022-12-08T17:02:57.208Z,9.00
2022-12-08T17:05:26.017Z,9.30
2022-12-08T17:07:54.019Z,9.15
2022-12-08T17:10:25.831Z,9.20
2022-12-08T17:12:53.778Z,9.05
2022-12-08T17:15:23.176Z,9.10
2022-12-08T17:17:51.914Z,8.77
2022-12-08T17:20:24.812Z,9.70
2022-12-08T17:22:55.226Z,9.10
2022-12-08T17:25:22.355Z,8.40
2022-12-08T17:27:49.357Z,8.90
2022-12-08T17:30:17.019Z,8.55
2022-12-08T17:32:44.380Z,8.73
2022-12-08T17:35:11.929Z,9.30
2022-12-08T17:37:38.790Z,8.88
2022-12-08T17:40:06.795Z,9.02
2022-12-08T17:42:34.052Z,9.05
2022-12-08T17:45:01.541Z,9.30
2022-12-08T17:47:31.853Z,9.23
2022-12-08T17:49:59.808Z,8.80
2022-12-08T17:52:27.270Z,9.18
2022-12-08T17:54:54.112Z,9.65
2022-12-08T17:57:22.315Z,8.93
2022-12-08T17:59:49.435Z,9.60
2022-12-08T18:02:16.671Z,8.93
2022-12-08T18:04:43.980Z,9.48
2022-12-08T18:07:11.252Z,9.18
2022-12-08T18:09:38.635Z,9.95
2022-12-08T18:12:06.738Z,9.80
2022-12-08T18:14:35.138Z,9.32
2022-12-08T18:17:03.058Z,10.07
2022-12-08T18:19:30.257Z,9.70
2022-12-08T18:21:57.456Z,9.57
2022-12-08T18:24:25.067Z,9.20
2022-12-08T18:26:52.744Z,9.82
2022-12-08T18:29:22.033Z,9.52
2022-12-08T18:31:50.508Z,9.98
2022-12-08T18:34:17.824Z,9.65
2022-12-08T18:36:45.200Z,9.47
2022-12-08T18:39:27.151Z,9.05
2022-12-08T18:41:56.082Z,10.07
2022-12-08T18:44:23.385Z,9.98
2022-12-08T18:46:51.081Z,10.52
2022-12-08T18:49:20.199Z,10.13
2022-12-08T18:51:48.037Z,9.77
2022-12-08T18:54:15.118Z,9.93
2022-12-08T18:56:43.046Z,9.25
2022-12-08T18:59:12.787Z,10.07
2022-12-08T19:01:41.134Z,9.70
2022-12-08T19:06:57.218Z,10.63
2022-12-08T19:09:24.986Z,10.77
2022-12-08T19:11:52.741Z,12.40
2022-12-08T19:14:25.882Z,11.27
2022-12-08T19:16:55.856Z,11.95
2022-12-08T19:19:24.009Z,12.10
2022-12-08T19:21:51.849Z,12.13
2022-12-08T19:24:19.204Z,12.27
2022-12-08T19:26:46.731Z,11.80
2022-12-08T19:29:14.136Z,10.63
2022-12-08T19:31:42.950Z,9.25
2022-12-08T19:34:17.155Z,9.10
2022-12-08T19:36:45.601Z,10.38
2022-12-08T19:39:22.233Z,10.23
2022-12-08T19:41:52.988Z,10.60
2022-12-08T19:44:26.986Z,10.40
2022-12-08T19:46:55.077Z,10.63
2022-12-08T19:49:23.613Z,10.13
2022-12-08T19:51:51.571Z,10.87
2022-12-08T19:54:19.435Z,10.20
2022-12-08T19:56:48.825Z,10.75
2022-12-08T19:59:17.151Z,10.63
2022-12-08T20:01:46.909Z,10.63
2022-12-08T20:04:16.162Z,11.00
2022-12-08T20:06:46.420Z,10.27
2022-12-08T20:09:15.739Z,11.80
2022-12-08T20:11:43.387Z,11.18
2022-12-08T20:14:11.010Z,10.45
2022-12-08T20:16:39.185Z,10.73
2022-12-08T20:19:08.316Z,11.80
2022-12-08T20:21:41.835Z,11.80
2022-12-08T20:24:09.602Z,11.68
2022-12-08T20:26:37.164Z,10.45
2022-12-08T20:29:04.811Z,12.13
2022-12-08T20:31:33.513Z,12.00
2022-12-08T20:34:01.951Z,11.65
2022-12-08T20:36:29.673Z,10.48
2022-12-08T20:38:58.737Z,10.63
2022-12-08T20:41:26.322Z,10.07
2022-12-08T20:43:55.840Z,10.38
2022-12-08T20:46:25.502Z,9.10
2022-12-08T20:48:53.022Z,9.18
2022-12-08T20:51:20.611Z,9.38
2022-12-08T20:53:47.970Z,9.63
2022-12-08T20:56:20.595Z,9.77
2022-12-08T20:58:48.597Z,10.00
2022-12-08T21:01:19.586Z,9.55
2022-12-08T21:03:47.851Z,9.55
2022-12-08T21:06:15.830Z,9.17
2022-12-08T21:08:42.925Z,8.55
2022-12-08T21:11:10.919Z,8.23
2022-12-08T21:13:38.571Z,9.25
2022-12-08T21:16:06.749Z,8.75
2022-12-08T21:18:39.189Z,9.37
2022-12-08T21:21:11.363Z,9.00
2022-12-08T21:23:38.627Z,8.80
2022-12-08T21:26:17.500Z,8.93
2022-12-08T21:28:46.305Z,8.27
2022-12-08T21:31:17.064Z,8.77
2022-12-08T21:33:44.545Z,9.30
2022-12-08T21:36:14.099Z,8.48
2022-12-08T21:38:42.659Z,8.70
2022-12-08T21:41:13.650Z,8.15
2022-12-08T21:43:41.454Z,8.77
2022-12-08T21:46:15.337Z,8.45
2022-12-08T21:48:42.298Z,8.88
2022-12-08T21:51:09.357Z,8.13
2022-12-08T21:53:36.138Z,8.18
2022-12-08T21:56:08.392Z,8.00
2022-12-08T21:58:35.393Z,8.32
2022-12-08T22:01:10.408Z,8.48
2022-12-08T22:03:39.200Z,8.27
2022-12-08T22:06:08.253Z,7.68
2022-12-08T22:08:35.971Z,7.87
2022-12-08T22:11:03.485Z,8.43
2022-12-08T22:13:30.410Z,8.30
2022-12-08T22:15:58.473Z,8.10
2022-12-08T22:18:25.925Z,9.40
2022-12-08T22:20:53.650Z,8.93
2022-12-08T22:23:21.319Z,8.30
2022-12-08T22:26:00.126Z,8.63
2022-12-08T22:28:28.009Z,8.25
2022-12-08T22:30:55.030Z,8.30
2022-12-08T22:33:21.992Z,7.97
2022-12-08T22:35:57.378Z,7.70
2022-12-08T22:38:25.062Z,8.07
2022-12-08T22:40:52.260Z,7.75
2022-12-08T22:43:19.628Z,8.40
2022-12-08T22:45:46.894Z,8.43
2022-12-08T22:48:13.985Z,8.18
2022-12-08T22:50:41.968Z,8.10
2022-12-08T22:53:12.348Z,8.20
2022-12-08T22:55:44.169Z,8.57
2022-12-08T22:58:11.896Z,9.03
2022-12-08T23:00:39.651Z,8.90
2022-12-08T23:03:07.032Z,8.27
2022-12-08T23:05:35.966Z,9.23
2022-12-08T23:08:04.451Z,9.13
2022-12-08T23:10:32.722Z,8.27
2022-12-08T23:13:03.734Z,8.18
2022-12-08T23:15:31.806Z,8.63
2022-12-08T23:17:59.935Z,8.75
2022-12-08T23:20:27.185Z,8.02
2022-12-08T23:22:53.970Z,8.30
2022-12-08T23:25:20.975Z,8.52
2022-12-08T23:27:48.066Z,7.90
2022-12-08T23:30:15.988Z,7.88
2022-12-08T23:32:42.929Z,7.72
2022-12-08T23:35:10.162Z,8.07
2022-12-08T23:37:37.451Z,7.30
2022-12-08T23:40:05.501Z,7.78
2022-12-08T23:42:33.027Z,7.32
2022-12-08T23:44:59.866Z,8.23
2022-12-08T23:47:26.759Z,7.57
2022-12-08T23:49:53.571Z,7.18
2022-12-08T23:52:20.344Z,7.30
2022-12-08T23:54:50.313Z,7.25
2022-12-08T23:57:17.374Z,6.53
2022-12-08T23:59:44.320Z,7.20
